createdAt,value
2019-03-11T00:02:04.686Z,100010.87
2019-03-11T00:04:34.273Z,100016.91
2019-03-11T00:07:03.849Z,100010.87
2019-03-11T00:09:33.501Z,100016.17
2019-03-11T00:12:03.298Z,100023.96
2019-03-11T00:14:33.596Z,100019.61
2019-03-11T00:17:03.514Z,100026.48
2019-03-11T00:19:33.051Z,100024.75
2019-03-11T00:22:02.643Z,100029.14
2019-03-11T00:24:32.255Z,100033.02
2019-03-11T00:27:04.160Z,100035.12
2019-03-11T00:29:34.147Z,100036.34
2019-03-11T00:32:03.619Z,100032.47
2019-03-11T00:34:33.225Z,100044.19
2019-03-11T00:37:02.837Z,100040.80
2019-03-11T00:39:32.450Z,100046.45
2019-03-11T00:42:02.157Z,100039.91
2019-03-11T00:44:31.869Z,100042.49
2019-03-11T00:47:01.407Z,100048.07
2019-03-11T00:49:31.089Z,100049.37
2019-03-11T00:52:00.818Z,100045.75
2019-03-11T00:54:30.341Z,100050.44
2019-03-11T00:57:00.736Z,100046.52
2019-03-11T00:59:30.529Z,100053.63
2019-03-11T01:02:00.174Z,100060.34
2019-03-11T01:04:29.748Z,100055.50
2019-03-11T01:06:59.626Z,100059.44
2019-03-11T01:09:29.269Z,100057.67
2019-03-11T01:11:58.782Z,100058.27
2019-03-11T01:14:28.468Z,100060.44
2019-03-11T01:16:58.471Z,100061.52
2019-03-11T01:19:28.052Z,100065.59
2019-03-11T01:21:57.723Z,100066.03
2019-03-11T01:24:27.461Z,100073.39
2019-03-11T01:26:58.370Z,100074.94
2019-03-11T01:29:28.132Z,100073.56
2019-03-11T01:31:58.645Z,100073.56
2019-03-11T01:34:28.371Z,100074.12
2019-03-11T01:36:58.110Z,100069.84
2019-03-11T01:39:27.866Z,100069.64
2019-03-11T01:41:57.434Z,100076.42
2019-03-11T01:44:27.298Z,100080.48
2019-03-11T01:46:57.175Z,100076.22
2019-03-11T01:49:27.059Z,100077.82
2019-03-11T01:51:56.783Z,100084.01
2019-03-11T01:54:26.983Z,100078.31
2019-03-11T01:56:57.046Z,100072.90
2019-03-11T01:59:26.764Z,100078.48
2019-03-11T02:01:56.823Z,100081.88
2019-03-11T02:04:26.875Z,100088.36
2019-03-11T02:06:56.441Z,100083.18
2019-03-11T02:09:26.137Z,100080.48
2019-03-11T02:11:55.670Z,100096.72
2019-03-11T02:14:25.445Z,100095.08
2019-03-11T02:16:55.106Z,100094.54
2019-03-11T02:19:25.116Z,100099.27
2019-03-11T02:21:55.139Z,100107.89
2019-03-11T02:24:25.113Z,100108.72
2019-03-11T02:26:55.071Z,100103.32
2019-03-11T02:29:24.848Z,100112.45
2019-03-11T02:31:54.536Z,100112.21
2019-03-11T02:34:24.442Z,100118.25
2019-03-11T02:36:53.931Z,100116.40
2019-03-11T02:39:23.960Z,100122.44
2019-03-11T02:41:53.748Z,100120.58
2019-03-11T02:44:23.392Z,100125.32
2019-03-11T02:46:53.554Z,100131.92
2019-03-11T02:49:23.430Z,100129.03
2019-03-11T02:51:53.073Z,100136.56
2019-03-11T02:54:22.691Z,100132.16
2019-03-11T02:56:52.281Z,100138.98
2019-03-11T02:59:22.004Z,100139.77
2019-03-11T03:02:25.876Z,100140.22
2019-03-11T03:05:08.715Z,100132.95
2019-03-11T03:07:38.250Z,100141.83
2019-03-11T03:10:08.604Z,100140.23
2019-03-11T03:12:38.122Z,100141.83
2019-03-11T03:15:08.127Z,100149.67
2019-03-11T03:17:37.737Z,100148.91
2019-03-11T03:20:07.816Z,100157.77
2019-03-11T03:22:37.300Z,100155.94
2019-03-11T03:25:07.958Z,100159.82
2019-03-11T03:27:37.605Z,100156.77
2019-03-11T03:30:10.110Z,100165.91
2019-03-11T03:32:39.713Z,100164.90
2019-03-11T03:35:09.584Z,100160.99
2019-03-11T03:37:39.295Z,100169.64
2019-03-11T03:40:09.565Z,100171.37
2019-03-11T03:42:39.192Z,100162.31
2019-03-11T03:45:43.243Z,100168.63
2019-03-11T03:48:14.014Z,100167.62
2019-03-11T03:50:44.217Z,100167.82
2019-03-11T03:53:13.769Z,100169.84
2019-03-11T03:55:43.413Z,100171.57
2019-03-11T03:58:12.960Z,100173.18
2019-03-11T04:00:42.689Z,100177.34
2019-03-11T04:03:12.200Z,100181.97
2019-03-11T04:05:41.944Z,100184.94
2019-03-11T04:08:11.589Z,100184.97
2019-03-11T04:10:41.292Z,100048.88
2019-03-11T04:13:10.915Z,100195.11
2019-03-11T04:15:40.826Z,100193.79
2019-03-11T04:18:10.994Z,100191.58
2019-03-11T04:20:40.594Z,100189.50
2019-03-11T04:23:10.330Z,100194.58
2019-03-11T04:25:40.010Z,100195.83
2019-03-11T04:28:09.614Z,100194.89
2019-03-11T04:30:39.368Z,100199.98
2019-03-11T04:33:08.903Z,100195.73
2019-03-11T04:35:38.622Z,100199.20
2019-03-11T04:38:08.380Z,100205.16
2019-03-11T04:40:38.362Z,100210.23
2019-03-11T04:43:07.980Z,100214.41
2019-03-11T04:45:37.474Z,100212.61
2019-03-11T04:48:07.171Z,100214.41
2019-03-11T04:50:36.813Z,100214.75
2019-03-11T04:53:06.617Z,100218.42
2019-03-11T04:55:36.369Z,100223.48
2019-03-11T04:58:06.142Z,100225.89
2019-03-11T05:00:35.818Z,100227.90
2019-03-11T05:03:05.418Z,100230.81
2019-03-11T05:05:35.056Z,100234.08
2019-03-11T05:08:04.768Z,100236.66
2019-03-11T05:10:34.417Z,100248.54
2019-03-11T05:13:04.178Z,100256.18
2019-03-11T05:15:33.872Z,100266.44
2019-03-11T05:18:03.512Z,100270.46
2019-03-11T05:20:33.049Z,100272.70
2019-03-11T05:23:02.706Z,100274.37
2019-03-11T05:25:33.307Z,100277.69
2019-03-11T05:28:02.896Z,100288.13
2019-03-11T05:30:32.848Z,100288.56
2019-03-11T05:33:02.630Z,100297.56
2019-03-11T05:35:32.204Z,100290.95
2019-03-11T05:38:01.839Z,100300.61
2019-03-11T05:40:31.613Z,100299.65
2019-03-11T05:43:01.396Z,100306.22
2019-03-11T05:45:30.999Z,100307.31
2019-03-11T05:48:00.633Z,100321.02
2019-03-11T05:50:30.748Z,100316.91
2019-03-11T05:53:00.378Z,100329.80
2019-03-11T05:55:30.021Z,100328.23
2019-03-11T05:57:59.741Z,100336.38
2019-03-11T06:00:30.430Z,100338.95
2019-03-11T06:03:00.163Z,100341.37
2019-03-11T06:05:29.781Z,100346.20
2019-03-11T06:07:59.395Z,100341.59
2019-03-11T06:10:29.122Z,100356.80
2019-03-11T06:12:58.879Z,100352.84
2019-03-11T06:15:28.753Z,100363.91
2019-03-11T06:17:58.681Z,100216.61
2019-03-11T06:20:34.026Z,100364.33
2019-03-11T06:23:04.486Z,100364.22
2019-03-11T06:25:34.083Z,100366.80
2019-03-11T06:28:03.844Z,100373.84
2019-03-11T06:30:34.030Z,100370.50
2019-03-11T06:33:03.785Z,100371.02
2019-03-11T06:35:33.527Z,100376.73
2019-03-11T06:38:03.236Z,100374.27
2019-03-11T06:40:32.871Z,100379.03
2019-03-11T06:43:02.625Z,100381.77
2019-03-11T06:45:32.461Z,100379.19
2019-03-11T06:48:02.144Z,100376.67
2019-03-11T06:50:31.931Z,100384.91
2019-03-11T06:53:01.843Z,100382.44
2019-03-11T06:55:31.399Z,100390.55
2019-03-11T06:58:01.285Z,100384.39
2019-03-11T07:00:31.011Z,100382.73
2019-03-11T07:03:00.806Z,100396.84
2019-03-11T07:05:30.340Z,100404.73
2019-03-11T07:08:00.323Z,100406.62
2019-03-11T07:10:30.147Z,100403.26
2019-03-11T07:13:00.029Z,100407.06
2019-03-11T07:15:29.662Z,100406.25
2019-03-11T07:17:59.412Z,100407.50
2019-03-11T07:20:29.054Z,100418.40
2019-03-11T07:22:58.841Z,100418.55
2019-03-11T07:25:28.583Z,100422.83
2019-03-11T07:27:58.729Z,100399.16
2019-03-11T07:30:28.822Z,100426.44
2019-03-11T07:32:58.610Z,100436.08
2019-03-11T07:35:28.578Z,100440.77
2019-03-11T07:37:59.240Z,100443.87
2019-03-11T07:40:30.408Z,100439.77
2019-03-11T07:43:00.207Z,100445.97
2019-03-11T07:45:30.127Z,100444.74
2019-03-11T07:47:59.763Z,100451.56
2019-03-11T07:50:29.527Z,100454.33
2019-03-11T07:52:59.296Z,100451.84
2019-03-11T07:55:28.979Z,100456.64
2019-03-11T07:57:58.782Z,100461.55
2019-03-11T08:00:29.416Z,100471.63
2019-03-11T08:02:59.362Z,100328.06
2019-03-11T08:05:29.743Z,100475.52
2019-03-11T08:07:59.651Z,100481.98
2019-03-11T08:10:29.625Z,100481.06
2019-03-11T08:12:59.397Z,100482.63
2019-03-11T08:15:29.234Z,100474.87
2019-03-11T08:17:59.080Z,100480.32
2019-03-11T08:20:28.723Z,100479.98
2019-03-11T08:22:58.469Z,100482.19
2019-03-11T08:25:28.267Z,100488.86
2019-03-11T08:28:00.602Z,100487.73
2019-03-11T08:30:30.544Z,100496.14
2019-03-11T08:33:00.217Z,100496.08
2019-03-11T08:35:29.951Z,100498.02
2019-03-11T08:38:04.948Z,100499.81
2019-03-11T08:40:31.095Z,100510.11
2019-03-11T08:43:00.609Z,100515.48
2019-03-11T08:45:30.345Z,100512.24
2019-03-11T08:48:01.580Z,100517.74
2019-03-11T08:50:31.258Z,100516.07
2019-03-11T08:53:01.261Z,100522.14
2019-03-11T08:55:30.880Z,100527.31
2019-03-11T08:58:00.511Z,100528.33
2019-03-11T09:00:30.139Z,100533.67
2019-03-11T09:03:00.105Z,100541.45
2019-03-11T09:05:29.771Z,100541.00
2019-03-11T09:07:59.349Z,100540.72
2019-03-11T09:10:29.036Z,100543.47
2019-03-11T09:12:58.815Z,100546.25
2019-03-11T09:15:28.607Z,100550.91
2019-03-11T09:17:58.879Z,100555.42
2019-03-11T09:20:28.665Z,100559.47
2019-03-11T09:22:58.673Z,100566.58
2019-03-11T09:25:28.749Z,100562.24
2019-03-11T09:27:58.657Z,100570.27
2019-03-11T09:30:28.605Z,100569.54
2019-03-11T09:32:58.790Z,100567.62
2019-03-11T09:35:28.691Z,100566.51
2019-03-11T09:37:58.750Z,100577.98
2019-03-11T09:40:28.908Z,100574.80
2019-03-11T09:42:58.973Z,100578.62
2019-03-11T09:45:28.790Z,100585.12
2019-03-11T09:47:58.571Z,100583.05
2019-03-11T09:50:29.012Z,100589.59
2019-03-11T09:52:58.714Z,100596.27
2019-03-11T09:55:28.600Z,100470.03
2019-03-11T09:57:58.564Z,100602.75
2019-03-11T10:00:28.636Z,100602.10
2019-03-11T10:02:58.486Z,100598.19
2019-03-11T10:05:29.106Z,100603.28
2019-03-11T10:07:58.818Z,100597.16
2019-03-11T10:10:28.942Z,100608.46
2019-03-11T10:12:58.504Z,100608.44
2019-03-11T10:15:28.451Z,100614.55
2019-03-11T10:17:58.360Z,100612.59
2019-03-11T10:20:28.927Z,100607.65
2019-03-11T10:22:58.872Z,100614.22
2019-03-11T10:25:28.659Z,100620.73
2019-03-11T10:27:58.460Z,100617.41
2019-03-11T10:30:28.540Z,100615.45
2019-03-11T10:32:58.476Z,100616.22
2019-03-11T10:35:32.774Z,100625.14
2019-03-11T10:38:00.150Z,100629.77
2019-03-11T10:40:29.848Z,100618.45
2019-03-11T10:42:59.462Z,100630.34
2019-03-11T10:45:31.775Z,100634.10
2019-03-11T10:48:00.486Z,100635.38
2019-03-11T10:50:30.317Z,100641.25
2019-03-11T10:52:59.997Z,100647.88
2019-03-11T10:55:29.867Z,100651.48
2019-03-11T10:57:59.510Z,100654.17
2019-03-11T11:00:29.520Z,100655.70
2019-03-11T11:02:59.310Z,100658.17
2019-03-11T11:05:28.980Z,100655.30
2019-03-11T11:07:58.939Z,100650.25
2019-03-11T11:10:28.736Z,100664.92
2019-03-11T11:12:58.619Z,100527.50
2019-03-11T11:15:29.063Z,100659.54
2019-03-11T11:17:58.715Z,100657.98
2019-03-11T11:20:28.879Z,100664.89
2019-03-11T11:22:59.257Z,100656.93
2019-03-11T11:25:29.377Z,100663.03
2019-03-11T11:27:59.126Z,100667.77
2019-03-11T11:30:28.893Z,100666.28
2019-03-11T11:32:58.472Z,100679.47
2019-03-11T11:35:28.478Z,100678.33
2019-03-11T11:37:58.826Z,100688.15
2019-03-11T11:40:28.685Z,100691.41
2019-03-11T11:42:59.325Z,100684.89
2019-03-11T11:45:29.226Z,100684.87
2019-03-11T11:47:59.011Z,100691.54
2019-03-11T11:50:28.970Z,100692.05
2019-03-11T11:52:59.116Z,100697.03
2019-03-11T11:55:28.972Z,100698.53
2019-03-11T11:57:58.653Z,100573.42
2019-03-11T12:00:30.252Z,100701.34
2019-03-11T12:02:59.912Z,100702.47
2019-03-11T12:05:29.764Z,100708.91
2019-03-11T12:07:59.485Z,100717.64
2019-03-11T12:10:29.455Z,100716.02
2019-03-11T12:12:59.224Z,100714.37
2019-03-11T12:15:29.034Z,100718.51
2019-03-11T12:17:58.754Z,100723.67
2019-03-11T12:20:28.806Z,100733.28
2019-03-11T12:22:58.743Z,100725.44
2019-03-11T12:25:29.003Z,100734.23
2019-03-11T12:27:58.913Z,100743.13
2019-03-11T12:30:28.834Z,100738.33
2019-03-11T12:32:59.073Z,100619.03
2019-03-11T12:35:28.807Z,100745.48
2019-03-11T12:37:58.552Z,100758.05
2019-03-11T12:40:28.948Z,100681.03
2019-03-11T12:42:58.611Z,100764.98
2019-03-11T12:45:28.626Z,100770.94
2019-03-11T12:47:58.512Z,100778.30
2019-03-11T12:50:28.999Z,100784.34
2019-03-11T12:52:58.828Z,100786.19
2019-03-11T12:55:29.013Z,100659.32
2019-03-11T12:57:58.663Z,100664.55
2019-03-11T13:00:28.678Z,100805.19
2019-03-11T13:02:58.421Z,100797.47
2019-03-11T13:05:28.231Z,100802.00
2019-03-11T13:07:58.016Z,100806.73
2019-03-11T13:10:27.814Z,100809.23
2019-03-11T13:12:58.003Z,100810.13
2019-03-11T13:15:28.578Z,100812.56
2019-03-11T13:18:18.853Z,100815.22
2019-03-11T13:20:48.468Z,100812.34
2019-03-11T13:23:18.055Z,100821.60
2019-03-11T13:25:47.721Z,100825.27
2019-03-11T13:28:17.824Z,100822.05
2019-03-11T13:30:47.363Z,100825.12
2019-03-11T13:33:17.155Z,100833.98
2019-03-11T13:35:46.831Z,100836.70
2019-03-11T13:38:16.427Z,100842.70
2019-03-11T13:40:46.210Z,100841.00
2019-03-11T13:43:16.043Z,100835.84
2019-03-11T13:45:45.581Z,100846.77
2019-03-11T13:48:15.212Z,100850.95
2019-03-11T13:50:44.779Z,100848.98
2019-03-11T13:53:14.412Z,100858.53
2019-03-11T13:55:44.176Z,100861.80
2019-03-11T13:58:13.867Z,100870.92
2019-03-11T14:00:43.476Z,100867.58
2019-03-11T14:03:13.306Z,100869.39
2019-03-11T14:05:43.113Z,100873.11
2019-03-11T14:08:12.884Z,100872.25
2019-03-11T14:10:42.641Z,100881.44
2019-03-11T14:13:12.373Z,100872.78
2019-03-11T14:15:42.193Z,100880.64
2019-03-11T14:18:11.991Z,100884.88
2019-03-11T14:20:41.530Z,100882.14
2019-03-11T14:23:11.218Z,100881.09
2019-03-11T14:25:40.764Z,100876.86
2019-03-11T14:28:10.483Z,100882.14
2019-03-11T14:30:40.389Z,100891.69
2019-03-11T14:33:09.978Z,100895.98
2019-03-11T14:35:39.747Z,100895.98
2019-03-11T14:38:09.449Z,100896.66
2019-03-11T14:40:43.683Z,100907.27
2019-03-11T14:43:13.435Z,100909.45
2019-03-11T14:45:43.473Z,100907.04
2019-03-11T14:48:13.097Z,100915.94
2019-03-11T14:50:42.868Z,100906.61
2019-03-11T14:53:12.646Z,100907.73
2019-03-11T14:55:42.340Z,100926.09
2019-03-11T14:58:12.008Z,100921.43
2019-03-11T15:00:41.868Z,100925.39
2019-03-11T15:03:11.640Z,100916.58
2019-03-11T15:05:41.332Z,100923.37
2019-03-11T15:08:12.700Z,100934.05
2019-03-11T15:10:42.541Z,100934.73
2019-03-11T15:13:12.415Z,100940.54
2019-03-11T15:15:42.554Z,100935.37
2019-03-11T15:18:12.066Z,100941.36
2019-03-11T15:20:41.731Z,100943.80
2019-03-11T15:23:20.364Z,100947.78
2019-03-11T15:25:42.695Z,100952.05
2019-03-11T15:28:12.393Z,100950.77
2019-03-11T15:30:42.205Z,100950.01
2019-03-11T15:33:12.025Z,100814.53
2019-03-11T15:35:41.849Z,100955.86
2019-03-11T15:38:11.516Z,100951.89
2019-03-11T15:40:41.126Z,100959.71
2019-03-11T15:43:10.874Z,100963.09
2019-03-11T15:45:40.567Z,100978.88
2019-03-11T15:48:10.558Z,100976.63
2019-03-11T15:50:40.231Z,100968.81
2019-03-11T15:53:09.934Z,100979.23
2019-03-11T15:55:40.075Z,100978.58
2019-03-11T15:58:09.831Z,100978.75
2019-03-11T16:00:39.859Z,100984.14
2019-03-11T16:03:09.719Z,100988.31
2019-03-11T16:05:39.682Z,100984.61
2019-03-11T16:08:09.556Z,100986.44
2019-03-11T16:10:39.330Z,100991.03
2019-03-11T16:13:09.247Z,100999.49
2019-03-11T16:15:39.459Z,101000.45
2019-03-11T16:18:09.429Z,100994.96
2019-03-11T16:20:39.604Z,101008.36
2019-03-11T16:23:09.927Z,101010.84
2019-03-11T16:25:40.146Z,101007.91
2019-03-11T16:28:09.687Z,101011.17
2019-03-11T16:30:39.374Z,101007.17
2019-03-11T16:33:09.450Z,101010.59
2019-03-11T16:35:39.479Z,101030.61
2019-03-11T16:38:09.050Z,101024.78
2019-03-11T16:40:39.010Z,101029.61
2019-03-11T16:43:08.792Z,101029.91
2019-03-11T16:45:41.531Z,101042.62
2019-03-11T16:48:11.563Z,101050.77
2019-03-11T16:50:41.685Z,101053.10
2019-03-11T16:53:11.399Z,101064.31
2019-03-11T16:55:41.870Z,101058.13
2019-03-11T16:58:11.730Z,101059.63
2019-03-11T17:00:43.695Z,101065.81
2019-03-11T17:03:13.521Z,101068.38
2019-03-11T17:05:43.375Z,101071.78
2019-03-11T17:08:13.402Z,101087.47
2019-03-11T17:10:43.072Z,101083.72
2019-03-11T17:13:12.667Z,101078.38
2019-03-11T17:15:42.429Z,101090.70
2019-03-11T17:18:12.667Z,101093.91
2019-03-11T17:20:42.621Z,101101.13
2019-03-11T17:23:12.303Z,101102.98
2019-03-11T17:25:41.963Z,101112.75
2019-03-11T17:28:11.573Z,101116.77
2019-03-11T17:30:41.542Z,101116.40
2019-03-11T17:33:11.236Z,101129.61
2019-03-11T17:35:40.932Z,101126.41
2019-03-11T17:38:10.989Z,101126.45
2019-03-11T17:40:41.170Z,101134.44
2019-03-11T17:43:11.082Z,101142.83
2019-03-11T17:45:40.778Z,101146.36
2019-03-11T17:48:10.528Z,101150.61
2019-03-11T17:50:40.302Z,101162.20
2019-03-11T17:53:19.467Z,101161.75
2019-03-11T17:55:41.958Z,101162.48
2019-03-11T17:58:11.764Z,101174.65
2019-03-11T18:00:42.244Z,101177.24
2019-03-11T18:03:13.427Z,101175.46
2019-03-11T18:05:43.093Z,101172.87
2019-03-11T18:08:13.442Z,101180.65
2019-03-11T18:10:43.138Z,101185.03
2019-03-11T18:13:13.000Z,101188.06
2019-03-11T18:15:42.870Z,101186.12
2019-03-11T18:18:12.719Z,101189.12
2019-03-11T18:20:42.641Z,101193.01
2019-03-11T18:23:12.552Z,101192.51
2019-03-11T18:25:42.233Z,101194.20
2019-03-11T18:28:12.048Z,101193.44
2019-03-11T18:30:42.608Z,101196.45
2019-03-11T18:33:12.655Z,101198.20
2019-03-11T18:35:43.292Z,101206.99
2019-03-11T18:38:12.999Z,101203.91
2019-03-11T18:40:42.720Z,101213.04
2019-03-11T18:43:20.770Z,101211.33
2019-03-11T18:45:44.104Z,101206.55
2019-03-11T18:48:13.811Z,101213.93
2019-03-11T18:50:43.719Z,101211.21
2019-03-11T18:53:13.777Z,101218.30
2019-03-11T18:55:43.520Z,101210.40
2019-03-11T18:58:13.643Z,101212.78
2019-03-11T19:00:43.512Z,101219.36
2019-03-11T19:03:13.147Z,101219.36
2019-03-11T19:05:45.373Z,101220.66
2019-03-11T19:08:15.737Z,101217.13
2019-03-11T19:10:45.874Z,101215.61
2019-03-11T19:13:16.692Z,101219.83
2019-03-11T19:15:46.629Z,101216.83
2019-03-11T19:18:16.288Z,101221.97
2019-03-11T19:20:46.430Z,101219.02
2019-03-11T19:23:16.217Z,101223.84
2019-03-11T19:25:46.015Z,101223.61
2019-03-11T19:28:15.923Z,101224.18
2019-03-11T19:30:46.276Z,101215.95
2019-03-11T19:33:16.141Z,101165.86
2019-03-11T19:35:46.619Z,101217.14
2019-03-11T19:38:16.310Z,101217.00
2019-03-11T19:40:45.933Z,101225.03
2019-03-11T19:43:15.703Z,101224.66
2019-03-11T19:45:45.305Z,101231.72
2019-03-11T19:48:15.060Z,101231.81
2019-03-11T19:50:45.326Z,101222.44
2019-03-11T19:53:15.186Z,101231.32
2019-03-11T19:55:47.509Z,101223.77
2019-03-11T19:58:16.536Z,101222.83
2019-03-11T20:00:46.170Z,101225.64
2019-03-11T20:03:23.960Z,101228.45
2019-03-11T20:05:47.303Z,101225.45
2019-03-11T20:08:17.067Z,101234.80
2019-03-11T20:10:49.082Z,101239.44
2019-03-11T20:13:19.053Z,101234.66
2019-03-11T20:15:48.653Z,101244.56
2019-03-11T20:18:18.246Z,101247.91
2019-03-11T20:20:50.550Z,101247.16
2019-03-11T20:23:19.946Z,101243.48
2019-03-11T20:25:49.760Z,101243.34
2019-03-11T20:28:19.467Z,101250.58
2019-03-11T20:30:49.425Z,101254.13
2019-03-11T20:33:19.069Z,101254.83
2019-03-11T20:35:48.706Z,101255.64
2019-03-11T20:38:18.446Z,101257.42
2019-03-11T20:40:48.006Z,101260.95
2019-03-11T20:43:17.746Z,101263.25
2019-03-11T20:45:47.422Z,101262.70
2019-03-11T20:48:17.403Z,101258.23
2019-03-11T20:50:47.100Z,101266.69
2019-03-11T20:53:16.834Z,101267.84
2019-03-11T20:55:46.755Z,101264.11
2019-03-11T20:58:16.579Z,101264.21
2019-03-11T21:00:46.356Z,101266.34
2019-03-11T21:03:16.094Z,101263.41
2019-03-11T21:05:46.128Z,101264.21
2019-03-11T21:08:16.001Z,101266.48
2019-03-11T21:10:46.293Z,101275.55
2019-03-11T21:13:16.048Z,101269.53
2019-03-11T21:15:45.927Z,101270.47
2019-03-11T21:18:15.671Z,101278.24
2019-03-11T21:20:45.307Z,101282.75
2019-03-11T21:23:15.260Z,101288.88
2019-03-11T21:25:45.412Z,101291.40
2019-03-11T21:28:15.201Z,101283.23
2019-03-11T21:30:45.004Z,101289.91
2019-03-11T21:33:14.879Z,101289.47
2019-03-11T21:35:44.800Z,101291.33
2019-03-11T21:38:14.558Z,101295.42
2019-03-11T21:40:44.419Z,101299.71
2019-03-11T21:43:14.104Z,101294.48
2019-03-11T21:45:45.197Z,101296.92
2019-03-11T21:48:15.026Z,101298.71
2019-03-11T21:50:44.682Z,101294.69
2019-03-11T21:53:14.432Z,101290.80
2019-03-11T21:55:44.658Z,101294.34
2019-03-11T21:58:14.363Z,101294.69
2019-03-11T22:00:44.235Z,101300.21
2019-03-11T22:03:13.816Z,101300.88
2019-03-11T22:05:43.797Z,101302.52
2019-03-11T22:08:13.563Z,101308.93
2019-03-11T22:10:43.206Z,101310.28
2019-03-11T22:13:13.308Z,101300.88
2019-03-11T22:15:42.909Z,101307.20
2019-03-11T22:18:12.593Z,101303.41
2019-03-11T22:20:42.291Z,101310.42
2019-03-11T22:23:12.057Z,101316.75
2019-03-11T22:25:41.649Z,101311.72
2019-03-11T22:28:11.489Z,101315.66
2019-03-11T22:30:41.044Z,101315.95
2019-03-11T22:33:10.709Z,101317.15
2019-03-11T22:35:40.264Z,101320.08
2019-03-11T22:38:09.816Z,101317.75
2019-03-11T22:40:39.392Z,101327.15
2019-03-11T22:43:09.425Z,101326.20
2019-03-11T22:45:38.969Z,101327.98
2019-03-11T22:48:08.683Z,101323.46
2019-03-11T22:50:38.561Z,101323.46
2019-03-11T22:53:09.501Z,101330.47
2019-03-11T22:55:39.492Z,101329.67
2019-03-11T22:58:09.080Z,101329.33
2019-03-11T23:00:57.259Z,101321.22
2019-03-11T23:03:27.494Z,101319.66
2019-03-11T23:05:58.560Z,101322.91
2019-03-11T23:08:28.671Z,101332.59
2019-03-11T23:10:58.917Z,101340.56
2019-03-11T23:13:28.919Z,101330.96
2019-03-11T23:15:58.847Z,101338.72
2019-03-11T23:18:28.689Z,101342.80
2019-03-11T23:20:58.959Z,101345.17
2019-03-11T23:23:28.540Z,101336.03
2019-03-11T23:25:58.711Z,101332.00
2019-03-11T23:28:28.682Z,101335.08
2019-03-11T23:30:58.998Z,101325.49
2019-03-11T23:33:28.874Z,101334.01
2019-03-11T23:35:58.524Z,101327.00
2019-03-11T23:38:28.875Z,101330.58
2019-03-11T23:40:58.679Z,101333.02
2019-03-11T23:43:28.776Z,101338.87
2019-03-11T23:45:58.524Z,101294.57
2019-03-11T23:48:28.396Z,101336.42
2019-03-11T23:50:58.191Z,101331.61
2019-03-11T23:53:28.028Z,101334.70
2019-03-11T23:55:57.552Z,101326.68
2019-03-11T23:58:27.427Z,101320.27
